PWSweather.com
Personal Weather Stations
Station Observations
CAMPIGIANO
Campi Bisenzio, FirenzeIT

Campi BisenzioFirenzeIT

Lat: 43.8175012, Lon: 11.1391085

Elevation: 106

Station Type: LaCrosse WS2350

Latest ConditionsUpdated 11:15:02 AM GMT+01:01 Sunday, Aug 28, 2016
Currently Today's Max Today's Min Today's Average
Temperature 86.1°F30.1°C 87.1°F30.6°C 64.9°F18.3°C 72.9°F22.7°C
Dew Point 63.5°F17.5°C 65.8°F18.8°C 56.0°F13.3°C 58.9°F14.9°C
Winds 2.3 mph NNE3.7 kmh NNE 2.3 mph NNE3.7 kmh NNE - 0.1 mph 0.2 kmh
Wind Gusts 2.3 mph3.7 kmh 2.3 mph3.7 kmh - -
Humidity 47% 73% 47% 62%
Pressure 30.06 in1017.9 mb 30.07 in1018.3 mb 30.05 in1017.6 mb -
Hour Temp Dew Point Humidity Winds Wind Gusts Pressure Precip Precip Rate Daily Precip Total
11:15 AM 86.1°F30.1°C 63.5°F17.5°C 47% 2.3 mph NNE3.7 kmh NNE 2.3 mph3.7 kmh 30.06 in1017.9 mb - 0.00 in0.0 mm 0.00 in0.0 mm
11:00 AM 87.1°F30.6°C 65.1°F18.4°C 48% Calm Calm -- 30.06 in1017.9 mb - 0.00 in0.0 mm 0.00 in0.0 mm
10:45 AM 86.2°F30.1°C 65.4°F18.6°C 50% Calm Calm -- 30.06 in1017.9 mb - 0.00 in0.0 mm 0.00 in0.0 mm
10:30 AM 84.0°F28.9°C 65.0°F18.3°C 53% Calm Calm -- 30.06 in1017.9 mb - 0.00 in0.0 mm 0.00 in0.0 mm
10:15 AM 84.8°F29.3°C 65.8°F18.8°C 53% Calm Calm -- 30.06 in1017.9 mb - 0.00 in0.0 mm 0.00 in0.0 mm
09:45 AM 80.2°F26.8°C 63.6°F17.6°C 57% Calm Calm -- 30.07 in1018.3 mb - 0.00 in0.0 mm 0.00 in0.0 mm
09:30 AM 80.6°F27.0°C 63.5°F17.5°C 56% Calm Calm 1.2 mph1.9 kmh 30.07 in1018.3 mb - 0.00 in0.0 mm 0.00 in0.0 mm
09:15 AM 81.0°F27.2°C 63.3°F17.4°C 55% Calm Calm -- 30.07 in1018.3 mb - 0.00 in0.0 mm 0.00 in0.0 mm
09:00 AM 79.8°F26.6°C 62.2°F16.8°C 55% Calm Calm -- 30.07 in1018.3 mb - 0.00 in0.0 mm 0.00 in0.0 mm
08:45 AM 78.5°F25.8°C 61.5°F16.4°C 56% Calm Calm -- 30.07 in1018.3 mb - 0.00 in0.0 mm 0.00 in0.0 mm
08:30 AM 78.1°F25.6°C 61.1°F16.2°C 56% Calm Calm -- 30.07 in1018.3 mb - 0.00 in0.0 mm 0.00 in0.0 mm
08:15 AM 78.7°F25.9°C 62.2°F16.8°C 57% Calm Calm -- 30.07 in1018.3 mb - 0.00 in0.0 mm 0.00 in0.0 mm
08:00 AM 77.2°F25.1°C 61.8°F16.6°C 59% Calm Calm -- 30.07 in1018.3 mb - 0.00 in0.0 mm 0.00 in0.0 mm
07:45 AM 75.0°F23.9°C 61.1°F16.2°C 62% Calm Calm -- 30.07 in1018.3 mb - 0.00 in0.0 mm 0.00 in0.0 mm
07:30 AM 73.9°F23.3°C 60.5°F15.8°C 63% Calm Calm -- 30.07 in1018.3 mb - 0.00 in0.0 mm 0.00 in0.0 mm
07:15 AM 71.4°F21.9°C 59.9°F15.5°C 67% Calm Calm -- 30.07 in1018.3 mb - 0.00 in0.0 mm 0.00 in0.0 mm
06:45 AM 66.2°F19.0°C 56.9°F13.8°C 72% Calm Calm -- 30.06 in1017.9 mb - 0.00 in0.0 mm 0.00 in0.0 mm
06:30 AM 65.5°F18.6°C 56.2°F13.4°C 72% Calm Calm -- 30.06 in1017.9 mb - 0.00 in0.0 mm 0.00 in0.0 mm
06:15 AM 65.1°F18.4°C 56.2°F13.4°C 73% Calm Calm -- 30.06 in1017.9 mb - 0.00 in0.0 mm 0.00 in0.0 mm
06:00 AM 64.9°F18.3°C 56.1°F13.4°C 73% Calm Calm -- 30.06 in1017.9 mb - 0.00 in0.0 mm 0.00 in0.0 mm
05:45 AM 64.9°F18.3°C 56.1°F13.4°C 73% Calm Calm -- 30.06 in1017.9 mb - 0.00 in0.0 mm 0.00 in0.0 mm
05:30 AM 65.3°F18.5°C 56.0°F13.3°C 72% Calm Calm -- 30.06 in1017.9 mb - 0.00 in0.0 mm 0.00 in0.0 mm
05:15 AM 65.6°F18.7°C 56.0°F13.3°C 71% Calm Calm -- 30.05 in1017.6 mb - 0.00 in0.0 mm 0.00 in0.0 mm
05:00 AM 66.0°F18.9°C 56.0°F13.3°C 70% Calm Calm -- 30.05 in1017.6 mb - 0.00 in0.0 mm 0.00 in0.0 mm
04:45 AM 66.2°F19.0°C 56.1°F13.4°C 70% Calm Calm -- 30.05 in1017.6 mb - 0.00 in0.0 mm 0.00 in0.0 mm
04:30 AM 66.4°F19.1°C 56.3°F13.5°C 70% Calm Calm -- 30.05 in1017.6 mb - 0.00 in0.0 mm 0.00 in0.0 mm
04:15 AM 66.7°F19.3°C 56.2°F13.4°C 69% Calm Calm -- 30.05 in1017.6 mb - 0.00 in0.0 mm 0.00 in0.0 mm
04:00 AM 67.6°F19.8°C 57.1°F13.9°C 69% Calm Calm -- 30.05 in1017.6 mb - 0.00 in0.0 mm 0.00 in0.0 mm
03:45 AM 68.2°F20.1°C 56.8°F13.8°C 67% Calm Calm -- 30.05 in1017.6 mb - 0.00 in0.0 mm 0.00 in0.0 mm
03:30 AM 68.7°F20.4°C 56.9°F13.8°C 66% Calm Calm -- 30.05 in1017.6 mb - 0.00 in0.0 mm 0.00 in0.0 mm
03:15 AM 68.5°F20.3°C 56.7°F13.7°C 66% Calm Calm -- 30.05 in1017.6 mb - 0.00 in0.0 mm 0.00 in0.0 mm
03:00 AM 68.7°F20.4°C 56.5°F13.6°C 65% Calm Calm -- 30.05 in1017.6 mb - 0.00 in0.0 mm 0.00 in0.0 mm
02:45 AM 69.1°F20.6°C 56.8°F13.8°C 65% Calm Calm -- 30.05 in1017.6 mb - 0.00 in0.0 mm 0.00 in0.0 mm
02:30 AM 69.4°F20.8°C 56.7°F13.7°C 64% Calm Calm -- 30.05 in1017.6 mb - 0.00 in0.0 mm 0.00 in0.0 mm
02:15 AM 70.0°F21.1°C 56.8°F13.8°C 63% Calm Calm -- 30.05 in1017.6 mb - 0.00 in0.0 mm 0.00 in0.0 mm
02:00 AM 70.3°F21.3°C 56.7°F13.7°C 62% Calm Calm -- 30.05 in1017.6 mb - 0.00 in0.0 mm 0.00 in0.0 mm
01:45 AM 70.7°F21.5°C 57.0°F13.9°C 62% Calm Calm -- 30.05 in1017.6 mb - 0.00 in0.0 mm 0.00 in0.0 mm
01:30 AM 71.4°F21.9°C 57.3°F14.1°C 61% Calm Calm -- 30.05 in1017.6 mb - 0.00 in0.0 mm 0.00 in0.0 mm
01:15 AM 72.0°F22.2°C 57.3°F14.1°C 60% Calm Calm -- 30.05 in1017.6 mb - 0.00 in0.0 mm 0.00 in0.0 mm
01:00 AM 72.5°F22.5°C 57.3°F14.1°C 59% Calm Calm -- 30.05 in1017.6 mb - 0.00 in0.0 mm 0.00 in0.0 mm
12:45 AM 72.5°F22.5°C 57.4°F14.1°C 59% Calm Calm -- 30.05 in1017.6 mb - 0.00 in0.0 mm 0.00 in0.0 mm
12:30 AM 72.9°F22.7°C 57.2°F14.0°C 58% Calm Calm -- 30.05 in1017.6 mb - 0.00 in0.0 mm 0.00 in0.0 mm
12:15 AM 73.6°F23.1°C 56.9°F13.8°C 56% Calm Calm -- 30.05 in1017.6 mb - 0.00 in0.0 mm 0.00 in0.0 mm
12:00 AM 74.3°F23.5°C 57.6°F14.2°C 56% Calm Calm -- 30.06 in1017.9 mb - 0.00 in0.0 mm 0.00 in0.0 mm